Loomis, WA (98827)

10:32 AM PST on January 26, 2015 (GMT -0800)
Mt. Hull | Change Station
CLOSE
Current Station
Personal Weather Station
Location: Tonasket, WA
Elevation: 2995 ft
Nearby Weather Stations

Elev 2995 ft 48.83 °N, 119.33 °W | Updated 2 minutes ago

Overcast
Overcast
43.6 °F
Feels Like 44 °F
N
1.0
Wind Variable Wind from SSE
Gusts 2.0 mph

Today
High -- | Low -- °F
--% Chance of Precip.
Yesterday
High -- | Low -- °F
Precip. -- in
7:36 AM 4:46 PM
Waxing Crescent, 45% visible
Pressure 30.15 in
Visibility 0.2 miles
Clouds
Windchill 44 °F
Dew Point 39 °F
Humidity 83%
Rainfall 0.00 in
Snow Depth Not available.
UV 0.9 out of 12
Pollen 4.00 out of 12
Air Quality Not available.
Flu Activity Not available.
METAR KOMK 261753Z AUTO 21004KT 1/4SM FG VV002 01/00 A3011 RMK AO2 SLP209 T00060000 10011 20006 51003

More Conditions Fewer Conditions

Pressure 30.15 in
Visibility 0.2 miles
Clouds
Windchill 44 °F
Dew Point 39 °F
Humidity 83%
Rainfall 0.00 in
Snow Depth Not available.
UV 0.9 out of 12
Pollen 4.00 out of 12
Air Quality Not available.
Flu Activity Not available.
METAR KOMK 261753Z AUTO 21004KT 1/4SM FG VV002 01/00 A3011 RMK AO2 SLP209 T00060000 10011 20006 51003

More Conditions Fewer Conditions

10-Day Weather Forecast

Almanac

Astronomy

Jan. 26, 2015 Rise Set
Actual Time
Civil Twilight
Nautical Twilight
Astronomical Twilight
Moon
Length of Visible Light
Length of Day
Tomorrow will be .
, % of the Moon is Illuminated

Today's Extremes

State Highs State Lows

Community

WunderPhotos

Upload Photos

1,790,309 photos uploaded!

WunderBlogs® & News

Nearby

Air Quality

  Air Quality AQ Index Pollutant
Not available.

Snow Depth

Station Depth Elevation

Earthquake Activity

City Distance Mag. Time & Date
Minimum magnitude displayed is 2.5.

Coastal Water Temperatures

Place Temperature

Nearby Weather Stations